createdAt,value
2022-09-12T00:01:10.350Z,99730.73
2022-09-12T00:03:37.541Z,99727.86
2022-09-12T00:06:31.917Z,99727.08
2022-09-12T00:09:00.503Z,99726.50
2022-09-12T00:11:28.375Z,99724.30
2022-09-12T00:13:59.932Z,99721.29
2022-09-12T00:16:28.022Z,99720.43
2022-09-12T00:18:55.676Z,99720.32
2022-09-12T00:21:22.647Z,99718.44
2022-09-12T00:23:49.986Z,99721.05
2022-09-12T00:26:18.243Z,99721.47
2022-09-12T00:28:45.173Z,99719.43
2022-09-12T00:31:15.042Z,99714.91
2022-09-12T00:33:42.507Z,99706.48
2022-09-12T00:36:19.675Z,99703.39
2022-09-12T00:38:46.924Z,99700.41
2022-09-12T00:41:18.277Z,99703.38
2022-09-12T00:44:11.258Z,99706.34
2022-09-12T00:46:49.071Z,99709.25
2022-09-12T00:49:35.673Z,99710.39
2022-09-12T00:52:09.079Z,99717.80
2022-09-12T00:54:58.762Z,99717.34
2022-09-12T00:57:29.126Z,99710.70
2022-09-12T01:00:18.216Z,99708.13
2022-09-12T01:03:09.281Z,99708.19
2022-09-12T01:05:37.968Z,99708.38
2022-09-12T01:08:05.332Z,99710.80
2022-09-12T01:10:33.274Z,99716.22
2022-09-12T01:13:00.357Z,99716.15
2022-09-12T01:15:27.306Z,99710.21
2022-09-12T01:18:05.322Z,99708.14
2022-09-12T01:20:39.142Z,99707.62
2022-09-12T01:23:36.185Z,99704.30
2022-09-12T01:26:15.217Z,99702.45
2022-09-12T01:28:51.022Z,99705.20
2022-09-12T01:31:36.160Z,99705.37
2022-09-12T01:34:21.953Z,99702.71
2022-09-12T01:36:56.691Z,99699.02
2022-09-12T01:39:32.646Z,99702.45
2022-09-12T01:42:07.078Z,99702.90
2022-09-12T01:45:05.059Z,99697.28
2022-09-12T01:47:40.371Z,99699.20
2022-09-12T01:50:19.132Z,99698.97
2022-09-12T01:52:50.381Z,99696.09
2022-09-12T01:55:24.202Z,99696.58
2022-09-12T01:57:57.697Z,99696.80
2022-09-12T02:00:25.161Z,99701.34
2022-09-12T02:03:02.781Z,99700.25
2022-09-12T02:06:04.014Z,99696.09
2022-09-12T02:08:39.584Z,99693.43
2022-09-12T02:11:08.500Z,99689.15
2022-09-12T02:13:38.388Z,99693.42
2022-09-12T02:16:13.143Z,99695.16
2022-09-12T02:18:42.140Z,99692.83
2022-09-12T02:21:08.957Z,99691.16
2022-09-12T02:23:38.666Z,99689.96
2022-09-12T02:26:20.256Z,99690.25
2022-09-12T02:28:47.722Z,99695.17
2022-09-12T02:31:35.148Z,99701.55
2022-09-12T02:34:10.724Z,99704.84
2022-09-12T02:36:46.862Z,99701.41
2022-09-12T02:39:13.708Z,99703.52
2022-09-12T02:41:40.657Z,99701.34
2022-09-12T02:44:08.117Z,99703.04
2022-09-12T02:46:44.280Z,99702.21
2022-09-12T02:49:11.223Z,99700.30
2022-09-12T02:51:38.170Z,99694.93
2022-09-12T02:54:07.682Z,99693.77
2022-09-12T02:56:34.526Z,99695.17
2022-09-12T02:59:03.367Z,99700.28
2022-09-12T03:01:46.273Z,99702.60
2022-09-12T03:04:32.645Z,99700.27
2022-09-12T03:07:25.495Z,99699.15
2022-09-12T03:09:55.719Z,99696.10
2022-09-12T03:12:30.120Z,99697.93
2022-09-12T03:15:13.700Z,99697.02
2022-09-12T03:18:06.023Z,99700.15
2022-09-12T03:20:42.092Z,99703.06
2022-09-12T03:23:19.589Z,99703.84
2022-09-12T03:25:50.143Z,99705.29
2022-09-12T03:28:17.595Z,99702.77
2022-09-12T03:30:47.153Z,99707.61
2022-09-12T03:33:16.248Z,99706.83
2022-09-12T03:35:43.794Z,99709.11
2022-09-12T03:38:10.632Z,99706.39
2022-09-12T03:40:37.810Z,99701.28
2022-09-12T03:43:06.127Z,99702.13
2022-09-12T03:45:33.062Z,99706.80
2022-09-12T03:47:59.975Z,99709.52
2022-09-12T03:50:26.926Z,99712.12
2022-09-12T03:52:53.773Z,99710.55
2022-09-12T03:55:20.825Z,99717.13
2022-09-12T03:57:48.296Z,99718.70
2022-09-12T04:00:19.715Z,99720.88
2022-09-12T04:02:47.239Z,99717.94
2022-09-12T04:05:14.667Z,99719.56
2022-09-12T04:07:41.385Z,99716.98
2022-09-12T04:10:09.650Z,99725.13
2022-09-12T04:12:37.286Z,99731.39
2022-09-12T04:15:05.215Z,99736.66
2022-09-12T04:17:32.061Z,99737.68
2022-09-12T04:19:59.633Z,99740.98
2022-09-12T04:22:26.904Z,99744.66
2022-09-12T04:24:54.265Z,99750.71
2022-09-12T04:27:21.426Z,99748.84
2022-09-12T04:29:48.795Z,99751.84
2022-09-12T04:32:16.163Z,99756.02
2022-09-12T04:34:43.031Z,99757.98
2022-09-12T04:37:12.018Z,99760.30
2022-09-12T04:39:39.425Z,99755.36
2022-09-12T04:42:06.436Z,99753.30
2022-09-12T04:44:33.398Z,99753.00
2022-09-12T04:47:00.761Z,99753.17
2022-09-12T04:49:28.126Z,99745.39
2022-09-12T04:51:55.698Z,99744.88
2022-09-12T04:54:22.548Z,99743.01
2022-09-12T04:56:50.018Z,99741.23
2022-09-12T04:59:21.073Z,99739.38
2022-09-12T05:01:48.688Z,99738.16
2022-09-12T05:04:15.915Z,99734.10
2022-09-12T05:06:42.824Z,99728.96
2022-09-12T05:09:11.876Z,99729.74
2022-09-12T05:12:03.110Z,99733.13
2022-09-12T05:14:28.680Z,99731.42
2022-09-12T05:16:59.930Z,99728.02
2022-09-12T05:19:28.088Z,99727.81
2022-09-12T05:21:56.459Z,99723.04
2022-09-12T05:24:23.338Z,99724.56
2022-09-12T05:26:50.303Z,99721.87
2022-09-12T05:29:17.059Z,99718.08
2022-09-12T05:31:44.530Z,99716.95
2022-09-12T05:34:11.611Z,99719.31
2022-09-12T05:36:38.959Z,99721.42
2022-09-12T05:39:06.438Z,99728.80
2022-09-12T05:41:34.313Z,99730.91
2022-09-12T05:44:03.575Z,99725.23
2022-09-12T05:46:35.683Z,99724.48
2022-09-12T05:49:04.087Z,99726.63
2022-09-12T05:51:33.583Z,99725.34
2022-09-12T05:54:01.350Z,99725.38
2022-09-12T05:56:33.630Z,99722.20
2022-09-12T05:59:05.541Z,99725.10
2022-09-12T06:01:34.579Z,99728.64
2022-09-12T06:04:03.683Z,99731.52
2022-09-12T06:06:31.815Z,99738.35
2022-09-12T06:09:00.313Z,99735.77
2022-09-12T06:11:28.976Z,99737.37
2022-09-12T06:13:57.718Z,99735.71
2022-09-12T06:16:27.957Z,99732.55
2022-09-12T06:18:56.575Z,99727.88
2022-09-12T06:21:24.288Z,99730.36
2022-09-12T06:23:51.746Z,99734.63
2022-09-12T06:26:21.622Z,99738.05
2022-09-12T06:28:49.022Z,99739.90
2022-09-12T06:31:20.989Z,99737.31
2022-09-12T06:33:49.691Z,99740.56
2022-09-12T06:36:18.418Z,99744.68
2022-09-12T06:38:49.296Z,99743.09
2022-09-12T06:41:17.050Z,99741.23
2022-09-12T06:43:44.527Z,99740.22
2022-09-12T06:46:13.421Z,99739.14
2022-09-12T06:48:42.107Z,99735.71
2022-09-12T06:51:13.772Z,99739.73
2022-09-12T06:53:41.548Z,99735.07
2022-09-12T06:56:12.181Z,99738.37
2022-09-12T06:58:40.071Z,99740.19
2022-09-12T07:01:11.323Z,99739.16
2022-09-12T07:03:38.870Z,99742.79
2022-09-12T07:06:13.506Z,99744.87
2022-09-12T07:08:45.703Z,99743.96
2022-09-12T07:11:21.372Z,99745.31
2022-09-12T07:13:51.166Z,99746.05
2022-09-12T07:16:19.922Z,99746.36
2022-09-12T07:18:58.373Z,99746.35
2022-09-12T07:21:26.446Z,99747.70
2022-09-12T07:23:55.444Z,99751.30
2022-09-12T07:26:22.502Z,99745.16
2022-09-12T07:29:07.827Z,99739.57
2022-09-12T07:31:40.364Z,99735.76
2022-09-12T07:34:08.029Z,99728.90
2022-09-12T07:36:34.976Z,99729.64
2022-09-12T07:39:02.029Z,99724.30
2022-09-12T07:41:31.328Z,99725.67
2022-09-12T07:44:01.877Z,99723.88
2022-09-12T07:46:33.645Z,99722.91
2022-09-12T07:49:01.276Z,99721.64
2022-09-12T07:51:29.275Z,99722.63
2022-09-12T07:53:56.711Z,99723.54
2022-09-12T07:56:29.911Z,99721.48
2022-09-12T07:58:59.214Z,99719.77
2022-09-12T08:01:26.837Z,99721.55
2022-09-12T08:03:55.647Z,99720.39
2022-09-12T08:06:25.914Z,99722.54
2022-09-12T08:08:54.077Z,99720.11
2022-09-12T08:11:22.660Z,99717.20
2022-09-12T08:13:55.324Z,99715.31
2022-09-12T08:16:26.277Z,99711.98
2022-09-12T08:18:53.545Z,99710.56
2022-09-12T08:21:22.658Z,99710.29
2022-09-12T08:24:16.218Z,99716.02
2022-09-12T08:26:43.475Z,99718.52
2022-09-12T08:29:10.939Z,99716.93
2022-09-12T08:31:38.347Z,99716.64
2022-09-12T08:34:08.831Z,99715.36
2022-09-12T08:36:35.985Z,99715.05
2022-09-12T08:39:06.394Z,99714.27
2022-09-12T08:41:50.251Z,99710.70
2022-09-12T08:44:54.074Z,99710.87
2022-09-12T08:47:34.847Z,99707.00
2022-09-12T08:50:06.814Z,99706.56
2022-09-12T08:52:37.657Z,99709.21
2022-09-12T08:55:06.817Z,99704.40
2022-09-12T08:57:33.643Z,99704.64
2022-09-12T09:00:00.677Z,99703.95
2022-09-12T09:02:36.577Z,99704.09
2022-09-12T09:05:12.574Z,99706.45
2022-09-12T09:07:54.982Z,99707.54
2022-09-12T09:10:46.918Z,99706.98
2022-09-12T09:13:42.783Z,99710.98
2022-09-12T09:16:12.922Z,99706.11
2022-09-12T09:18:40.533Z,99709.97
2022-09-12T09:21:52.230Z,99710.62
2022-09-12T09:24:22.132Z,99710.73
2022-09-12T09:27:01.180Z,99708.41
2022-09-12T09:29:42.768Z,99706.33
2022-09-12T09:32:17.721Z,99708.98
2022-09-12T09:34:44.756Z,99707.27
2022-09-12T09:37:42.641Z,99712.33
2022-09-12T09:40:27.808Z,99713.23
2022-09-12T09:43:03.768Z,99706.64
2022-09-12T09:45:31.024Z,99709.44
2022-09-12T09:48:05.556Z,99717.14
2022-09-12T09:50:32.918Z,99720.73
2022-09-12T09:53:00.353Z,99720.98
2022-09-12T09:55:31.116Z,99720.77
2022-09-12T09:57:58.882Z,99720.59
2022-09-12T10:00:33.990Z,99717.97
2022-09-12T10:03:13.434Z,99711.98
2022-09-12T10:05:54.433Z,99709.31
2022-09-12T10:08:26.702Z,99718.10
2022-09-12T10:11:05.831Z,99722.71
2022-09-12T10:13:52.987Z,99721.60
2022-09-12T10:16:33.204Z,99721.81
2022-09-12T10:19:03.118Z,99724.20
2022-09-12T10:21:48.084Z,99727.57
2022-09-12T10:24:22.789Z,99727.11
2022-09-12T10:26:57.077Z,99726.44
2022-09-12T10:29:33.250Z,99729.18
2022-09-12T10:32:06.620Z,99730.61
2022-09-12T10:34:46.352Z,99734.71
2022-09-12T10:37:20.075Z,99736.73
2022-09-12T10:39:53.533Z,99733.21
2022-09-12T10:42:44.696Z,99733.77
2022-09-12T10:45:38.975Z,99730.09
2022-09-12T10:48:26.819Z,99734.39
2022-09-12T10:50:53.913Z,99739.86
2022-09-12T10:53:23.351Z,99739.41
2022-09-12T10:56:03.684Z,99743.45
2022-09-12T10:58:53.860Z,99746.41
2022-09-12T11:01:51.843Z,99748.39
2022-09-12T11:04:42.445Z,99749.73
2022-09-12T11:07:27.928Z,99753.21
2022-09-12T11:10:14.340Z,99755.40
2022-09-12T11:12:56.994Z,99759.50
2022-09-12T11:15:52.592Z,99757.34
2022-09-12T11:18:42.753Z,99752.20
2022-09-12T11:21:34.687Z,99749.60
2022-09-12T11:24:05.933Z,99746.48
2022-09-12T11:27:10.593Z,99748.18
2022-09-12T11:29:53.281Z,99749.02
2022-09-12T11:32:48.263Z,99749.77
2022-09-12T11:35:29.572Z,99755.91
2022-09-12T11:38:31.542Z,99753.38
2022-09-12T11:41:26.649Z,99753.39
2022-09-12T11:44:05.850Z,99754.57
2022-09-12T11:46:38.052Z,99757.08
2022-09-12T11:49:14.317Z,99757.48
2022-09-12T11:51:58.268Z,99762.95
2022-09-12T11:54:37.404Z,99763.08
2022-09-12T11:57:05.175Z,99763.52
2022-09-12T11:59:34.693Z,99767.52
2022-09-12T12:02:01.575Z,99769.77
2022-09-12T12:04:35.598Z,99772.57
2022-09-12T12:07:08.230Z,99771.64
2022-09-12T12:09:35.692Z,99776.27
2022-09-12T12:12:09.542Z,99775.77
2022-09-12T12:14:43.535Z,99778.19
2022-09-12T12:17:20.227Z,99778.97
2022-09-12T12:19:48.279Z,99777.34
2022-09-12T12:22:20.758Z,99778.39
2022-09-12T12:25:06.552Z,99780.52
2022-09-12T12:27:55.006Z,99782.45
2022-09-12T12:30:54.129Z,99787.14
2022-09-12T12:33:22.016Z,99784.17
2022-09-12T12:35:59.662Z,99786.77
2022-09-12T12:38:34.623Z,99782.95
2022-09-12T12:41:17.215Z,99786.80
2022-09-12T12:43:52.360Z,99786.67
2022-09-12T12:46:21.481Z,99785.34
2022-09-12T12:48:53.452Z,99785.46
2022-09-12T12:51:30.210Z,99779.05
2022-09-12T12:53:58.679Z,99786.02
2022-09-12T12:56:46.145Z,99787.56
2022-09-12T12:59:19.437Z,99783.45
2022-09-12T13:01:54.235Z,99787.45
2022-09-12T13:04:30.439Z,99787.16
2022-09-12T13:07:07.881Z,99781.99
2022-09-12T13:09:54.751Z,99784.00
2022-09-12T13:12:24.794Z,99779.15
2022-09-12T13:14:58.693Z,99773.92
2022-09-12T13:17:40.171Z,99777.64
2022-09-12T13:20:29.565Z,99783.33
2022-09-12T13:22:57.722Z,99786.75
2022-09-12T13:25:29.170Z,99789.97
2022-09-12T13:28:11.496Z,99786.92
2022-09-12T13:31:18.329Z,99790.05
2022-09-12T13:33:47.919Z,99791.34
2022-09-12T13:36:24.740Z,99792.75
2022-09-12T13:39:12.991Z,99795.29
2022-09-12T13:41:43.316Z,99795.05
2022-09-12T13:44:11.392Z,99793.95
2022-09-12T13:46:38.907Z,99794.13
2022-09-12T13:49:11.732Z,99796.48
2022-09-12T13:51:38.987Z,99799.32
2022-09-12T13:54:05.831Z,99798.21
2022-09-12T13:56:37.492Z,99796.77
2022-09-12T13:59:05.515Z,99799.50
2022-09-12T14:01:47.213Z,99799.87
2022-09-12T14:04:40.727Z,99798.17
2022-09-12T14:07:22.330Z,99798.65
2022-09-12T14:10:01.551Z,99796.27
2022-09-12T14:12:43.654Z,99796.44
2022-09-12T14:15:32.541Z,99798.77
2022-09-12T14:18:08.740Z,99800.09
2022-09-12T14:20:49.456Z,99799.31
2022-09-12T14:23:33.708Z,99798.38
2022-09-12T14:26:19.589Z,99800.00
2022-09-12T14:28:50.130Z,99802.00
2022-09-12T14:31:38.796Z,99802.02
2022-09-12T14:34:21.818Z,99803.94
2022-09-12T14:36:55.493Z,99806.19
2022-09-12T14:39:38.349Z,99805.55
2022-09-12T14:42:21.557Z,99802.27
2022-09-12T14:44:58.387Z,99808.91
2022-09-12T14:47:37.572Z,99812.41
2022-09-12T14:50:11.125Z,99810.96
2022-09-12T14:52:46.821Z,99810.85
2022-09-12T14:55:21.245Z,99809.55
2022-09-12T14:58:18.809Z,99813.59
2022-09-12T15:01:04.696Z,99814.40
2022-09-12T15:03:47.262Z,99816.05
2022-09-12T15:06:50.202Z,99812.77
2022-09-12T15:09:25.860Z,99815.34
2022-09-12T15:11:53.211Z,99815.36
2022-09-12T15:14:20.876Z,99815.51
2022-09-12T15:17:00.730Z,99814.77
2022-09-12T15:19:33.734Z,99815.02
2022-09-12T15:22:05.909Z,99810.75
2022-09-12T15:24:39.928Z,99813.98
2022-09-12T15:27:14.763Z,99810.37
2022-09-12T15:29:48.269Z,99809.14
2022-09-12T15:32:27.201Z,99805.65
2022-09-12T15:34:54.669Z,99804.33
2022-09-12T15:37:27.659Z,99806.21
2022-09-12T15:39:56.613Z,99807.58
2022-09-12T15:42:29.453Z,99807.39
2022-09-12T15:45:01.798Z,99809.18
2022-09-12T15:47:32.664Z,99813.50
2022-09-12T15:50:00.092Z,99816.02
2022-09-12T15:52:27.371Z,99819.17
2022-09-12T15:54:58.621Z,99823.31
2022-09-12T15:57:30.773Z,99826.21
2022-09-12T16:00:01.317Z,99829.05
2022-09-12T16:02:34.413Z,99832.63
2022-09-12T16:05:17.335Z,99836.96
2022-09-12T16:07:44.992Z,99840.73
2022-09-12T16:10:23.777Z,99844.70
2022-09-12T16:12:51.476Z,99842.21
2022-09-12T16:15:24.928Z,99849.20
2022-09-12T16:17:52.368Z,99849.86
2022-09-12T16:20:20.641Z,99854.92
2022-09-12T16:22:55.973Z,99854.80
2022-09-12T16:25:39.715Z,99855.25
2022-09-12T16:28:20.715Z,99857.07
2022-09-12T16:31:01.408Z,99862.15
2022-09-12T16:33:31.196Z,99858.55
2022-09-12T16:36:19.957Z,99862.05
2022-09-12T16:38:51.727Z,99870.33
2022-09-12T16:41:21.920Z,99869.82
2022-09-12T16:43:55.676Z,99870.61
2022-09-12T16:46:42.100Z,99875.59
2022-09-12T16:49:15.175Z,99873.41
2022-09-12T16:51:48.525Z,99873.36
2022-09-12T16:54:15.953Z,99878.02
2022-09-12T16:56:44.531Z,99877.23
2022-09-12T16:59:17.729Z,99875.94
2022-09-12T17:01:55.919Z,99878.04
2022-09-12T17:04:36.729Z,99883.74
2022-09-12T17:07:17.042Z,99883.20
2022-09-12T17:09:52.144Z,99882.16
2022-09-12T17:12:22.478Z,99883.73
2022-09-12T17:14:56.447Z,99883.70
2022-09-12T17:17:36.794Z,99884.98
2022-09-12T17:20:04.862Z,99884.41
2022-09-12T17:22:37.231Z,99888.92
2022-09-12T17:25:20.873Z,99890.54
2022-09-12T17:28:03.906Z,99888.07
2022-09-12T17:30:39.158Z,99883.19
2022-09-12T17:33:06.009Z,99888.47
2022-09-12T17:35:47.917Z,99883.96
2022-09-12T17:38:18.113Z,99890.31
2022-09-12T17:41:14.814Z,99889.60
2022-09-12T17:43:49.256Z,99893.94
2022-09-12T17:46:35.196Z,99902.33
2022-09-12T17:49:04.846Z,99900.56
2022-09-12T17:51:43.903Z,99903.38
2022-09-12T17:54:18.994Z,99897.91
2022-09-12T17:56:47.403Z,99896.61
2022-09-12T17:59:19.533Z,99900.43
2022-09-12T18:02:11.367Z,99899.29
2022-09-12T18:04:40.908Z,99901.52
2022-09-12T18:07:08.735Z,99895.27
2022-09-12T18:09:36.603Z,99899.38
2022-09-12T18:12:03.769Z,99901.74
2022-09-12T18:14:34.099Z,99904.32
2022-09-12T18:17:09.148Z,99903.89
2022-09-12T18:19:36.011Z,99903.73
2022-09-12T18:22:03.584Z,99903.92
2022-09-12T18:24:30.535Z,99904.52
2022-09-12T18:26:58.316Z,99899.27
2022-09-12T18:29:27.976Z,99900.08
2022-09-12T18:31:55.899Z,99902.81
2022-09-12T18:34:22.741Z,99903.92
2022-09-12T18:36:54.943Z,99904.77
2022-09-12T18:39:27.928Z,99906.25
2022-09-12T18:41:57.641Z,99905.79
2022-09-12T18:44:35.963Z,99906.71
2022-09-12T18:47:09.571Z,99906.20
2022-09-12T18:49:37.550Z,99908.58
2022-09-12T18:52:19.077Z,99912.83
2022-09-12T18:54:52.731Z,99909.77
2022-09-12T18:57:34.962Z,99913.34
2022-09-12T19:00:04.082Z,99913.73
2022-09-12T19:02:34.152Z,99915.09
2022-09-12T19:05:01.339Z,99914.05
2022-09-12T19:07:39.273Z,99911.49
2022-09-12T19:10:12.388Z,99905.65
2022-09-12T19:12:46.895Z,99906.36
2022-09-12T19:15:14.268Z,99908.86
2022-09-12T19:17:48.182Z,99907.25
2022-09-12T19:20:16.574Z,99905.11
2022-09-12T19:22:50.293Z,99898.63
2022-09-12T19:25:31.624Z,99898.21
2022-09-12T19:28:11.155Z,99899.11
2022-09-12T19:30:47.372Z,99897.92
2022-09-12T19:33:18.041Z,99898.97
2022-09-12T19:35:44.792Z,99900.27
2022-09-12T19:38:12.668Z,99898.94
2022-09-12T19:40:42.183Z,99896.60
2022-09-12T19:43:09.346Z,99896.50
2022-09-12T19:45:37.424Z,99897.30
2022-09-12T19:48:04.282Z,99897.34
2022-09-12T19:50:32.870Z,99893.27
2022-09-12T19:52:59.718Z,99897.92
2022-09-12T19:55:29.845Z,99899.10
2022-09-12T19:57:56.699Z,99894.20
2022-09-12T20:00:28.133Z,99894.45
2022-09-12T20:03:02.289Z,99893.00
2022-09-12T20:05:42.548Z,99891.35
2022-09-12T20:08:17.928Z,99888.12
2022-09-12T20:10:48.635Z,99885.89
2022-09-12T20:13:17.500Z,99887.40
2022-09-12T20:15:44.418Z,99888.07
2022-09-12T20:18:11.752Z,99890.13
2022-09-12T20:20:38.599Z,99891.52
2022-09-12T20:23:09.848Z,99885.78
2022-09-12T20:25:43.358Z,99891.80
2022-09-12T20:28:10.208Z,99894.16
2022-09-12T20:30:40.638Z,99896.79
2022-09-12T20:33:07.480Z,99900.70
2022-09-12T20:35:35.781Z,99903.39
2022-09-12T20:38:04.155Z,99901.55
2022-09-12T20:40:31.719Z,99906.17
2022-09-12T20:42:59.181Z,99905.63
2022-09-12T20:45:39.367Z,99904.17
2022-09-12T20:48:06.194Z,99902.81
2022-09-12T20:50:36.740Z,99899.87
2022-09-12T20:53:07.884Z,99900.48
2022-09-12T20:55:35.347Z,99897.91
2022-09-12T20:58:02.088Z,99897.88
2022-09-12T21:00:30.780Z,99895.11
2022-09-12T21:03:03.977Z,99896.60
2022-09-12T21:05:37.814Z,99895.60
2022-09-12T21:08:14.890Z,99895.39
2022-09-12T21:10:42.758Z,99898.33
2022-09-12T21:13:25.273Z,99896.64
2022-09-12T21:16:12.971Z,99898.73
2022-09-12T21:19:01.183Z,99898.59
2022-09-12T21:21:31.500Z,99897.67
2022-09-12T21:24:17.089Z,99892.54
2022-09-12T21:26:46.286Z,99891.72
2022-09-12T21:29:24.097Z,99889.70
2022-09-12T21:31:51.664Z,99887.95
2022-09-12T21:34:25.583Z,99885.77
2022-09-12T21:36:55.712Z,99890.22
2022-09-12T21:39:22.487Z,99888.80
2022-09-12T21:41:50.126Z,99889.93
2022-09-12T21:44:16.976Z,99890.73
2022-09-12T21:46:44.064Z,99892.84
2022-09-12T21:49:17.884Z,99887.65
2022-09-12T21:51:54.526Z,99880.77
2022-09-12T21:54:24.653Z,99874.69
2022-09-12T21:56:51.686Z,99873.91
2022-09-12T21:59:19.788Z,99874.98
2022-09-12T22:01:48.008Z,99875.77
2022-09-12T22:04:16.861Z,99876.21
2022-09-12T22:06:46.813Z,99876.35
2022-09-12T22:09:15.386Z,99871.39
2022-09-12T22:11:55.720Z,99872.52
2022-09-12T22:14:22.502Z,99878.11
2022-09-12T22:16:50.787Z,99879.73
2022-09-12T22:19:20.289Z,99885.98
2022-09-12T22:22:05.794Z,99885.15
2022-09-12T22:24:32.745Z,99883.45
2022-09-12T22:27:00.827Z,99883.23
2022-09-12T22:29:28.184Z,99880.17
2022-09-12T22:31:55.754Z,99879.42
2022-09-12T22:34:22.603Z,99875.89
2022-09-12T22:36:49.558Z,99874.46
2022-09-12T22:39:16.920Z,99871.77
2022-09-12T22:41:44.183Z,99876.81
2022-09-12T22:44:11.333Z,99873.35
2022-09-12T22:46:45.591Z,99870.98
2022-09-12T22:49:26.635Z,99871.66
2022-09-12T22:51:53.999Z,99870.46
2022-09-12T22:54:24.735Z,99869.73
2022-09-12T22:56:51.583Z,99866.89
2022-09-12T22:59:18.435Z,99868.10
2022-09-12T23:01:45.286Z,99862.44
2022-09-12T23:04:16.337Z,99862.55
2022-09-12T23:06:57.311Z,99862.05
2022-09-12T23:09:44.647Z,99861.03
2022-09-12T23:12:11.498Z,99854.73
2022-09-12T23:14:39.164Z,99853.18
2022-09-12T23:17:05.915Z,99852.26
2022-09-12T23:19:33.583Z,99845.10
2022-09-12T23:22:02.493Z,99844.58
2022-09-12T23:24:29.335Z,99840.52
2022-09-12T23:27:01.304Z,99836.02
2022-09-12T23:29:29.280Z,99833.75
2022-09-12T23:31:57.048Z,99833.35
2022-09-12T23:34:24.407Z,99835.86
2022-09-12T23:36:56.585Z,99829.93
2022-09-12T23:39:26.612Z,99830.67
2022-09-12T23:41:53.664Z,99830.23
2022-09-12T23:44:20.522Z,99834.58
2022-09-12T23:46:47.872Z,99835.84
2022-09-12T23:49:15.130Z,99833.90
2022-09-12T23:51:49.060Z,99835.84
2022-09-12T23:54:22.674Z,99831.00
2022-09-12T23:56:50.023Z,99832.96
2022-09-12T23:59:17.484Z,99835.27
